22 maja 2022

Czas Kod Pogoda Temp. Widoczność Chmury Wiatr METAR/SPECI
09:30
V
20 °C 10 km+ 16.000 ft 120°   120° 7 kt METAR LFBM 220730Z AUTO 12007KT 080V170 9999 SCT008/// BKN160/// BKN190/// //////TCU 20/17 Q1011 BECMG NSC
09:00
I
19 °C 10 km+ 700 ft 170°   170° 3 kt METAR LFBM 220700Z AUTO 17003KT 120V230 9999 OVC007 19/17 Q1012 BECMG NSC
08:30
I
19 °C 10 km+ 700 ft 200°   200° 6 kt METAR LFBM 220630Z AUTO 20006KT 160V240 9999 OVC007 19/17 Q1013 BECMG NSC
08:00
I
19 °C 10 km+ 700 ft 210°   210° 4 kt METAR LFBM 220600Z AUTO 21004KT 180V270 9999 OVC007 19/17 Q1013 NOSIG
07:30
I
19 °C 10 km+ 800 ft 190°   190° 4 kt METAR LFBM 220530Z AUTO 19004KT 140V240 9999 BKN008 19/17 Q1013 NOSIG
07:00
I
18 °C 10 km+ 700 ft 090°   090° 2 kt METAR LFBM 220500Z AUTO 09002KT 9999 BKN007 OVC190 18/17 Q1012 BECMG NSC
06:30
I
19 °C 10 km+ 700 ft Var   Var 3 kt METAR LFBM 220430Z AUTO VRB03KT 9999 OVC007 19/17 Q1013 BECMG NSC
06:00
I
19 °C 8 km 600 ft 250°   250° 7 kt METAR LFBM 220400Z AUTO 25007KT 220V280 8000 OVC006 19/17 Q1013 BECMG NSC
05:30
I
19 °C 7 km 600 ft 250°   250° 10 kt METAR LFBM 220330Z AUTO 25010KT 7000 OVC006 19/17 Q1014 BECMG NSC
05:00
I
19 °C 5 km 500 ft 240°   240° 5 kt METAR LFBM 220300Z AUTO 24005KT 5000 BR OVC005 19/18 Q1013 BECMG NSC
04:30
I
19 °C 7 km 600 ft 240°   240° 5 kt METAR LFBM 220230Z AUTO 24005KT 200V270 7000 OVC006 19/17 Q1013 BECMG NSC
04:00
I
19 °C 6 km 500 ft 240°   240° 4 kt METAR LFBM 220200Z AUTO 24004KT 200V280 6000 OVC005 19/17 Q1013 BECMG NSC
03:30
I
19 °C 6 km 600 ft 250°   250° 9 kt METAR LFBM 220130Z AUTO 25009KT 6000 BKN006 OVC190 19/18 Q1014 BECMG NSC
03:00
I
19 °C 10 km+ 500 ft 250°   250° 10 kt METAR LFBM 220100Z AUTO 25010KT 9999 BKN005 OVC190 19/18 Q1014 BECMG NSC
02:30
M
20 °C 5 km - 250°   250° 9 kt METAR LFBM 220030Z AUTO 25009KT 5000 BR NSC 20/19 Q1013 NOSIG
02:00
M
20 °C 7 km - 270°   270° 7 kt METAR LFBM 220000Z AUTO 27007KT 7000 NSC 20/20 Q1013 NOSIG
01:30
V
21 °C 10 km+ - Var   000° 0 kt METAR LFBM 212330Z AUTO 00000KT CAVOK 21/19 Q1013 NOSIG
01:00
V
21 °C 10 km+ - Var   Var 2 kt METAR LFBM 212300Z AUTO VRB02KT CAVOK 21/20 Q1013 NOSIG
00:30
V
21 °C 10 km+ - Var   000° 0 kt METAR LFBM 212230Z AUTO 00000KT CAVOK 21/20 Q1014 NOSIG
00:00
V
21 °C 10 km+ - 330°   330° 2 kt METAR LFBM 212200Z AUTO 33002KT CAVOK 21/20 Q1014 NOSIG

21 maja 2022

Czas Kod Pogoda Temp. Widoczność Chmury Wiatr METAR/SPECI
23:30
V
22 °C 10 km+ - Var   000° 0 kt METAR LFBM 212130Z AUTO 00000KT CAVOK 22/20 Q1014 NOSIG
23:00
V
22 °C 10 km+ - Var   Var 3 kt METAR LFBM 212100Z AUTO VRB03KT CAVOK 22/20 Q1014 NOSIG
22:30
V
23 °C 10 km+ - 060°   060° 3 kt METAR LFBM 212030Z AUTO 06003KT CAVOK 23/21 Q1014 NOSIG
22:00
V
23 °C 10 km+ - 050°   050° 2 kt METAR LFBM 212000Z AUTO 05002KT CAVOK 23/21 Q1014 NOSIG
21:30
V
25 °C 10 km+ - Var   Var 3 kt METAR LFBM 211930Z AUTO VRB03KT CAVOK 25/21 Q1014 NOSIG
21:00
V
26 °C 10 km+ - 040°   040° 2 kt METAR LFBM 211900Z AUTO 04002KT CAVOK 26/21 Q1014 NOSIG
20:30
V
28 °C 10 km+ - Var   000° 0 kt METAR LFBM 211830Z AUTO 00000KT CAVOK 28/21 Q1014 BECMG 08010KT
20:00
V
30 °C 10 km+ - Var   Var 2 kt METAR LFBM 211800Z AUTO VRB02KT CAVOK 30/19 Q1014 NOSIG
19:30
V
30 °C 10 km+ - 130°   130° 3 kt METAR LFBM 211730Z AUTO 13003KT 100V160 CAVOK 30/19 Q1014 NOSIG
19:00
V
31 °C 10 km+ - 100°   100° 5 kt METAR LFBM 211700Z AUTO 10005KT 070V130 CAVOK 31/20 Q1014 NOSIG
18:30
V
31 °C 10 km+ - 130°   130° 7 kt METAR LFBM 211630Z AUTO 13007KT 090V170 CAVOK 31/19 Q1014 NOSIG
18:00
V
31 °C 10 km+ - 120°   120° 7 kt METAR LFBM 211600Z AUTO 12007KT 090V160 CAVOK 31/19 Q1015 NOSIG
17:30
V
31 °C 10 km+ - 140°   140° 5 kt METAR LFBM 211530Z AUTO 14005KT 090V170 CAVOK 31/18 Q1015 NOSIG
17:00
V
31 °C 10 km+ - 140°   140° 5 kt METAR LFBM 211500Z AUTO 14005KT 110V180 CAVOK 31/19 Q1016 NOSIG
16:30
V
32 °C 10 km+ - 080°   080° 5 kt METAR LFBM 211430Z AUTO 08005KT 020V140 CAVOK 32/19 Q1016 NOSIG
16:00
V
31 °C 10 km+ - 120°   120° 5 kt METAR LFBM 211400Z AUTO 12005KT 070V190 CAVOK 31/18 Q1016 NOSIG
15:30
V
31 °C 10 km+ - 090°   090° 7 kt METAR LFBM 211330Z AUTO 09007KT 060V140 CAVOK 31/18 Q1016 NOSIG
15:00
V
30 °C 10 km+ - 090°   090° 7 kt METAR LFBM 211300Z AUTO 09007KT 040V150 CAVOK 30/19 Q1017 NOSIG
14:30
V
29 °C 10 km+ - 070°   070° 8 kt METAR LFBM 211230Z AUTO 07008KT 030V110 CAVOK 29/19 Q1017 NOSIG
14:00
V
29 °C 10 km+ - 060°   060° 7 kt METAR LFBM 211200Z AUTO 06007KT 020V110 CAVOK 29/20 Q1017 NOSIG
13:30
V
28 °C 10 km+ - 050°   050° 6 kt METAR LFBM 211130Z AUTO 05006KT 010V080 CAVOK 28/20 Q1017 NOSIG
13:00
V
27 °C 10 km+ - 040°   040° 4 kt METAR LFBM 211100Z AUTO 04004KT 300V080 CAVOK 27/19 Q1018 NOSIG
12:30
V
26 °C 10 km+ - 100°   100° 5 kt METAR LFBM 211030Z AUTO 10005KT 040V170 CAVOK 26/20 Q1018 NOSIG
12:00
V
26 °C 10 km+ - 090°   090° 6 kt METAR LFBM 211000Z AUTO 09006KT 050V160 CAVOK 26/18 Q1018 NOSIG
11:30
V
25 °C 10 km+ - 090°   090° 7 kt METAR LFBM 210930Z AUTO 09007KT 060V140 CAVOK 25/18 Q1018 NOSIG
11:00
V
24 °C 10 km+ - 080°   080° 6 kt METAR LFBM 210900Z AUTO 08006KT 030V110 CAVOK 24/17 Q1019 NOSIG
10:30
V
22 °C 10 km+ - 090°   090° 7 kt METAR LFBM 210830Z AUTO 09007KT CAVOK 22/17 Q1019 NOSIG
10:00
V
21 °C 10 km+ - 090°   090° 5 kt METAR LFBM 210800Z AUTO 09005KT 040V130 CAVOK 21/17 Q1019 NOSIG
09:30
V
20 °C 10 km+ - 110°   110° 6 kt METAR LFBM 210730Z AUTO 11006KT 070V150 CAVOK 20/15 Q1019 NOSIG
09:00
V
18 °C 10 km+ - Var   Var 2 kt METAR LFBM 210700Z AUTO VRB02KT CAVOK 18/15 Q1020 NOSIG
08:30
V
16 °C 10 km+ - Var   Var 1 kt METAR LFBM 210630Z AUTO VRB01KT CAVOK 16/15 Q1020 NOSIG
08:00
V
15 °C 10 km+ - Var   Var 2 kt METAR LFBM 210600Z AUTO VRB02KT CAVOK 15/14 Q1020 NOSIG
07:30
V
14 °C 10 km+ - 050°   050° 2 kt METAR LFBM 210530Z AUTO 05002KT CAVOK 14/13 Q1020 NOSIG
07:00
V
13 °C 10 km+ - 020°   020° 1 kt METAR LFBM 210500Z AUTO 02001KT CAVOK 13/13 Q1020 NOSIG
06:30
V
13 °C 10 km+ - Var   000° 0 kt METAR LFBM 210430Z AUTO 00000KT CAVOK 13/13 Q1020 NOSIG
06:00
V
13 °C 10 km+ - Var   000° 0 kt METAR LFBM 210400Z AUTO 00000KT CAVOK 13/13 Q1021 NOSIG
05:30
V
14 °C 10 km+ - Var   000° 0 kt METAR LFBM 210330Z AUTO 00000KT CAVOK 14/13 Q1021 NOSIG
05:00
V
14 °C 10 km+ 3.600 ft Var   Var 1 kt METAR LFBM 210300Z AUTO VRB01KT 9999 BKN036 14/14 Q1021 NOSIG
04:30
V
14 °C 10 km+ 3.500 ft Var   000° 0 kt METAR LFBM 210230Z AUTO 00000KT 9999 BKN035 14/13 Q1022 NOSIG
04:00
V
15 °C 10 km+ 3.400 ft 310°   310° 2 kt METAR LFBM 210200Z AUTO 31002KT 9999 BKN034 15/14 Q1022 NOSIG
03:30
V
15 °C 10 km+ - 310°   310° 1 kt METAR LFBM 210130Z AUTO 31001KT 9999 SCT034 15/14 Q1023 NOSIG
03:00
V
15 °C 10 km+ - Var   000° 0 kt METAR LFBM 210100Z AUTO 00000KT CAVOK 15/15 Q1023 NOSIG
02:30
V
15 °C 10 km+ - Var   000° 0 kt METAR LFBM 210030Z AUTO 00000KT CAVOK 15/15 Q1023 NOSIG
02:00
V
16 °C 10 km+ - 260°   260° 1 kt METAR LFBM 210000Z AUTO 26001KT CAVOK 16/15 Q1023 NOSIG
01:30
V
16 °C 10 km+ - 280°   280° 1 kt METAR LFBM 202330Z AUTO 28001KT CAVOK 16/15 Q1023 NOSIG
01:00
V
16 °C 10 km+ - 270°   270° 2 kt METAR LFBM 202300Z AUTO 27002KT CAVOK 16/15 Q1024 NOSIG
00:30
V
16 °C 10 km+ - 280°   280° 3 kt METAR LFBM 202230Z AUTO 28003KT CAVOK 16/15 Q1024 NOSIG
00:00
V
17 °C 10 km+ - Var   Var 2 kt METAR LFBM 202200Z AUTO VRB02KT CAVOK 17/15 Q1024 NOSIG

20 maja 2022

Czas Kod Pogoda Temp. Widoczność Chmury Wiatr METAR/SPECI
23:30
V
17 °C 10 km+ - 300°   300° 3 kt METAR LFBM 202130Z AUTO 30003KT CAVOK 17/16 Q1024 NOSIG
23:00
V
18 °C 10 km+ - 310°   310° 5 kt METAR LFBM 202100Z AUTO 31005KT CAVOK 18/16 Q1024 NOSIG
22:30
V
18 °C 10 km+ - 280°   280° 4 kt METAR LFBM 202030Z AUTO 28004KT CAVOK 18/16 Q1024 NOSIG
22:00
V
19 °C 10 km+ - 280°   280° 4 kt METAR LFBM 202000Z AUTO 28004KT CAVOK 19/16 Q1023 NOSIG
21:30
V
20 °C 10 km+ - 270°   270° 6 kt METAR LFBM 201930Z AUTO 27006KT CAVOK 20/16 Q1023 NOSIG
21:00
V
21 °C 10 km+ - 270°   270° 6 kt METAR LFBM 201900Z AUTO 27006KT CAVOK 21/16 Q1023 NOSIG
20:30
V
21 °C 10 km+ - 270°   270° 8 kt METAR LFBM 201830Z AUTO 27008KT CAVOK 21/16 Q1023 NOSIG
20:00
V
22 °C 10 km+ - 240°   240° 7 kt METAR LFBM 201800Z AUTO 24007KT 210V270 CAVOK 22/17 Q1024 NOSIG
19:30
V
23 °C 10 km+ 3.500 ft 270°   270° 6 kt METAR LFBM 201730Z AUTO 27006KT 220V310 9999 BKN035 23/17 Q1023 NOSIG
19:00
V
23 °C 10 km+ 3.400 ft 270°   270° 8 kt METAR LFBM 201700Z AUTO 27008KT 9999 OVC034 23/16 Q1023 NOSIG
18:30
V
23 °C 10 km+ 3.300 ft 280°   280° 7 kt METAR LFBM 201630Z AUTO 28007KT 240V320 9999 OVC033 23/16 Q1023 NOSIG
18:00
V
23 °C 10 km+ 3.200 ft 280°   280° 6 kt METAR LFBM 201600Z AUTO 28006KT 250V310 9999 OVC032 23/16 Q1023 NOSIG
17:30
V
24 °C 10 km+ 3.500 ft 260°   260° 7 kt METAR LFBM 201530Z AUTO 26007KT 230V310 9999 OVC035 24/16 Q1023 NOSIG
17:00
V
24 °C 10 km+ 3.400 ft 250°   250° 6 kt METAR LFBM 201500Z AUTO 25006KT 210V290 9999 BKN034 OVC200 24/16 Q1023 NOSIG
16:30
V
24 °C 10 km+ 3.200 ft 290°   290° 5 kt METAR LFBM 201430Z AUTO 29005KT 240V330 9999 BKN032 OVC190 24/16 Q1023 NOSIG
16:00
V
24 °C 10 km+ 3.000 ft 250°   250° 6 kt METAR LFBM 201400Z AUTO 25006KT 210V270 9999 OVC030 24/17 Q1023 NOSIG
15:30
M
24 °C 10 km+ 2.900 ft 290°   290° 4 kt METAR LFBM 201330Z AUTO 29004KT 230V340 9999 BKN029 OVC200 24/17 Q1023 NOSIG
15:00
M
24 °C 10 km+ 2.800 ft 270°   270° 8 kt METAR LFBM 201300Z AUTO 27008KT 210V300 9999 OVC028 24/17 Q1023 NOSIG
14:30
M
24 °C 10 km+ 2.500 ft 260°   260° 8 kt METAR LFBM 201230Z AUTO 26008KT 220V290 9999 BKN025 BKN034 OVC200 24/17 Q1023 NOSIG
14:00
M
24 °C 10 km+ 2.700 ft 280°   280° 8 kt METAR LFBM 201200Z AUTO 28008KT 230V320 9999 BKN027 OVC200 24/18 Q1023 NOSIG
13:30
M
24 °C 10 km+ 2.500 ft 270°   270° 7 kt METAR LFBM 201130Z AUTO 27007KT 220V310 9999 BKN025 BKN031 OVC200 24/18 Q1022 NOSIG
13:00
V
23 °C 10 km+ 3.100 ft 280°   280° 10 kt METAR LFBM 201100Z AUTO 28010KT 9999 SCT024 BKN031 OVC200 23/18 Q1022 NOSIG
12:30
M
23 °C 10 km+ 2.300 ft 300°   300° 9 kt METAR LFBM 201030Z AUTO 30009KT 270V330 9999 BKN023 BKN028 BKN190 23/17 Q1022 NOSIG
12:00
M
23 °C 10 km+ 2.300 ft 290°   290° 10 kt METAR LFBM 201000Z AUTO 29010KT 9999 BKN023 OVC200 23/18 Q1022 NOSIG
11:30
M
22 °C 10 km+ 1.500 ft 260°   260° 5 kt METAR LFBM 200930Z AUTO 26005KT 230V290 9999 FEW009 BKN015 OVC200 22/18 Q1021 NOSIG
11:00
I
21 °C 10 km+ 600 ft 260°   260° 9 kt METAR LFBM 200900Z AUTO 26009KT 230V290 9999 BKN006 OVC200 21/18 Q1021 BECMG NSC
10:30
V
21 °C 10 km+ - 270°   270° 8 kt METAR LFBM 200830Z AUTO 27008KT 240V300 CAVOK 21/19 Q1021 NOSIG
10:00
V
21 °C 10 km+ - Var   Var 3 kt METAR LFBM 200800Z AUTO VRB03KT CAVOK 21/18 Q1020
09:30
V
21 °C 10 km+ - Var   000° 0 kt METAR LFBM 200730Z AUTO 00000KT CAVOK 21/17 Q1019 NOSIG
09:00
V
20 °C 10 km+ - Var   Var 1 kt METAR LFBM 200700Z AUTO VRB01KT CAVOK 20/17 Q1019 NOSIG
Starsze dane

Pobierz naszą aplikację

Łatwy dostęp do całej pogody lotniczej na telefonie komórkowym i tablecie.
Z wieloma funkcjami niedostępnymi na stronie internetowej, takimi jak wsparcie offline i osobista lista lotnisk.

My i osoby trzecie śledzimy twoje zachowanie w internecie na naszej stronie za pomocą plików cookie. Jeśli kontynuujesz, zakładamy, że zgadzasz się z naszą polityką plików cookie. Dowiedz się więcej